sensor_id;sensor_type;location;lat;lon;timestamp;temperature;humidity
14119;DHT22;7138;49.246;9.100;2022-12-18T00:01:23;-8.50;99.90
14119;DHT22;7138;49.246;9.100;2022-12-18T00:03:50;-8.60;99.90
14119;DHT22;7138;49.246;9.100;2022-12-18T00:06:18;-8.60;99.90
14119;DHT22;7138;49.246;9.100;2022-12-18T00:08:46;-8.60;99.90
14119;DHT22;7138;49.246;9.100;2022-12-18T00:11:15;-8.60;99.90
14119;DHT22;7138;49.246;9.100;2022-12-18T00:13:43;-8.50;99.90
14119;DHT22;7138;49.246;9.100;2022-12-18T00:16:11;-8.60;99.90
14119;DHT22;7138;49.246;9.100;2022-12-18T00:18:39;-8.70;99.90
14119;DHT22;7138;49.246;9.100;2022-12-18T00:21:07;-8.80;99.90
14119;DHT22;7138;49.246;9.100;2022-12-18T00:23:34;-9.00;99.90
14119;DHT22;7138;49.246;9.100;2022-12-18T00:26:05;-9.00;99.90
14119;DHT22;7138;49.246;9.100;2022-12-18T00:28:32;-9.00;99.90
14119;DHT22;7138;49.246;9.100;2022-12-18T00:31:02;-9.10;99.90
14119;DHT22;7138;49.246;9.100;2022-12-18T00:33:29;-9.10;99.90
14119;DHT22;7138;49.246;9.100;2022-12-18T00:36:00;-9.10;99.90
14119;DHT22;7138;49.246;9.100;2022-12-18T00:38:27;-9.20;99.90
14119;DHT22;7138;49.246;9.100;2022-12-18T00:40:52;-9.10;99.90
14119;DHT22;7138;49.246;9.100;2022-12-18T00:43:20;-9.20;99.90
14119;DHT22;7138;49.246;9.100;2022-12-18T00:45:46;-9.20;99.90
14119;DHT22;7138;49.246;9.100;2022-12-18T00:48:11;-9.20;99.90
14119;DHT22;7138;49.246;9.100;2022-12-18T00:50:37;-9.20;99.90
14119;DHT22;7138;49.246;9.100;2022-12-18T00:53:03;-9.30;99.90
14119;DHT22;7138;49.246;9.100;2022-12-18T00:55:29;-9.20;99.90
14119;DHT22;7138;49.246;9.100;2022-12-18T00:57:55;-9.20;99.90
14119;DHT22;7138;49.246;9.100;2022-12-18T01:00:23;-9.20;99.90
14119;DHT22;7138;49.246;9.100;2022-12-18T01:02:49;-9.10;99.90
14119;DHT22;7138;49.246;9.100;2022-12-18T01:05:15;-9.10;99.90
14119;DHT22;7138;49.246;9.100;2022-12-18T01:07:41;-9.10;99.90
14119;DHT22;7138;49.246;9.100;2022-12-18T01:10:08;-9.10;99.90
14119;DHT22;7138;49.246;9.100;2022-12-18T01:12:36;-9.10;99.90
14119;DHT22;7138;49.246;9.100;2022-12-18T01:15:03;-9.00;99.90
14119;DHT22;7138;49.246;9.100;2022-12-18T01:17:32;-9.00;99.90
14119;DHT22;7138;49.246;9.100;2022-12-18T01:19:59;-8.90;99.90
14119;DHT22;7138;49.246;9.100;2022-12-18T01:22:24;-9.00;99.90
14119;DHT22;7138;49.246;9.100;2022-12-18T01:24:50;-9.00;99.90
14119;DHT22;7138;49.246;9.100;2022-12-18T01:27:16;-9.10;99.90
14119;DHT22;7138;49.246;9.100;2022-12-18T01:29:42;-9.00;99.90
14119;DHT22;7138;49.246;9.100;2022-12-18T01:32:08;-9.10;99.90
14119;DHT22;7138;49.246;9.100;2022-12-18T01:34:36;-9.00;99.90
14119;DHT22;7138;49.246;9.100;2022-12-18T01:37:03;-9.00;99.90
14119;DHT22;7138;49.246;9.100;2022-12-18T01:39:29;-9.10;99.90
14119;DHT22;7138;49.246;9.100;2022-12-18T01:41:57;-9.20;99.90
14119;DHT22;7138;49.246;9.100;2022-12-18T01:44:55;-9.20;99.90
14119;DHT22;7138;49.246;9.100;2022-12-18T01:47:26;-9.00;99.90
14119;DHT22;7138;49.246;9.100;2022-12-18T01:49:58;-8.90;99.90
14119;DHT22;7138;49.246;9.100;2022-12-18T01:52:28;-8.90;99.90
14119;DHT22;7138;49.246;9.100;2022-12-18T01:54:58;-8.70;99.90
14119;DHT22;7138;49.246;9.100;2022-12-18T01:57:26;-8.60;99.90
14119;DHT22;7138;49.246;9.100;2022-12-18T01:59:57;-8.70;99.90
14119;DHT22;7138;49.246;9.100;2022-12-18T02:02:27;-8.80;99.90
14119;DHT22;7138;49.246;9.100;2022-12-18T02:04:54;-8.90;99.90
14119;DHT22;7138;49.246;9.100;2022-12-18T02:07:26;-9.00;99.90
14119;DHT22;7138;49.246;9.100;2022-12-18T02:10:06;-9.10;99.90
14119;DHT22;7138;49.246;9.100;2022-12-18T02:12:43;-9.10;99.90
14119;DHT22;7138;49.246;9.100;2022-12-18T02:15:17;-9.10;99.90
14119;DHT22;7138;49.246;9.100;2022-12-18T02:17:52;-9.00;99.90
14119;DHT22;7138;49.246;9.100;2022-12-18T02:20:30;-9.10;99.90
14119;DHT22;7138;49.246;9.100;2022-12-18T02:23:06;-9.10;99.90
14119;DHT22;7138;49.246;9.100;2022-12-18T02:26:02;-9.20;99.90
14119;DHT22;7138;49.246;9.100;2022-12-18T02:28:42;-9.10;99.90
14119;DHT22;7138;49.246;9.100;2022-12-18T02:31:14;-8.90;99.90
14119;DHT22;7138;49.246;9.100;2022-12-18T02:33:49;-8.60;99.90
14119;DHT22;7138;49.246;9.100;2022-12-18T02:36:18;-8.60;99.90
14119;DHT22;7138;49.246;9.100;2022-12-18T02:38:47;-8.60;99.90
14119;DHT22;7138;49.246;9.100;2022-12-18T02:41:18;-8.60;99.90
14119;DHT22;7138;49.246;9.100;2022-12-18T02:43:47;-8.60;99.90
14119;DHT22;7138;49.246;9.100;2022-12-18T02:46:27;-8.50;99.90
14119;DHT22;7138;49.246;9.100;2022-12-18T02:49:10;-8.40;99.90
14119;DHT22;7138;49.246;9.100;2022-12-18T02:51:50;-8.30;99.90
14119;DHT22;7138;49.246;9.100;2022-12-18T02:54:29;-8.20;99.90
14119;DHT22;7138;49.246;9.100;2022-12-18T02:57:09;-8.10;99.90
14119;DHT22;7138;49.246;9.100;2022-12-18T02:59:49;-8.00;99.90
14119;DHT22;7138;49.246;9.100;2022-12-18T03:02:27;-8.00;99.90
14119;DHT22;7138;49.246;9.100;2022-12-18T03:05:05;-8.10;99.90
14119;DHT22;7138;49.246;9.100;2022-12-18T03:07:41;-8.10;99.90
14119;DHT22;7138;49.246;9.100;2022-12-18T03:10:15;-8.10;99.90
14119;DHT22;7138;49.246;9.100;2022-12-18T03:12:47;-8.10;99.90
14119;DHT22;7138;49.246;9.100;2022-12-18T03:15:22;-8.10;99.90
14119;DHT22;7138;49.246;9.100;2022-12-18T03:17:56;-8.00;99.90
14119;DHT22;7138;49.246;9.100;2022-12-18T03:20:29;-8.00;99.90
14119;DHT22;7138;49.246;9.100;2022-12-18T03:23:04;-7.90;99.90
14119;DHT22;7138;49.246;9.100;2022-12-18T03:25:37;-7.90;99.90
14119;DHT22;7138;49.246;9.100;2022-12-18T03:28:12;-7.90;99.90
14119;DHT22;7138;49.246;9.100;2022-12-18T03:30:41;-7.90;99.90
14119;DHT22;7138;49.246;9.100;2022-12-18T03:33:13;-7.80;99.90
14119;DHT22;7138;49.246;9.100;2022-12-18T03:35:45;-7.90;99.90
14119;DHT22;7138;49.246;9.100;2022-12-18T03:38:12;-8.00;99.90
14119;DHT22;7138;49.246;9.100;2022-12-18T03:40:45;-8.00;99.90
14119;DHT22;7138;49.246;9.100;2022-12-18T03:43:32;-7.90;99.90
14119;DHT22;7138;49.246;9.100;2022-12-18T03:46:07;-8.00;99.90
14119;DHT22;7138;49.246;9.100;2022-12-18T03:48:43;-8.00;99.90
14119;DHT22;7138;49.246;9.100;2022-12-18T03:51:22;-8.00;99.90
14119;DHT22;7138;49.246;9.100;2022-12-18T03:53:55;-8.10;99.90
14119;DHT22;7138;49.246;9.100;2022-12-18T03:56:26;-8.00;99.90
14119;DHT22;7138;49.246;9.100;2022-12-18T03:58:59;-8.10;99.90
14119;DHT22;7138;49.246;9.100;2022-12-18T04:01:31;-8.10;99.90
14119;DHT22;7138;49.246;9.100;2022-12-18T04:04:00;-8.00;99.90
14119;DHT22;7138;49.246;9.100;2022-12-18T04:06:28;-8.00;99.90
14119;DHT22;7138;49.246;9.100;2022-12-18T04:08:57;-8.00;99.90
14119;DHT22;7138;49.246;9.100;2022-12-18T04:11:23;-8.00;99.90
14119;DHT22;7138;49.246;9.100;2022-12-18T04:13:49;-8.10;99.90
14119;DHT22;7138;49.246;9.100;2022-12-18T04:16:16;-8.10;99.90
14119;DHT22;7138;49.246;9.100;2022-12-18T04:18:42;-8.10;99.90
14119;DHT22;7138;49.246;9.100;2022-12-18T04:21:08;-8.10;99.90
14119;DHT22;7138;49.246;9.100;2022-12-18T04:23:35;-8.10;99.90
14119;DHT22;7138;49.246;9.100;2022-12-18T04:26:01;-8.20;99.90
14119;DHT22;7138;49.246;9.100;2022-12-18T04:28:27;-8.10;99.90
14119;DHT22;7138;49.246;9.100;2022-12-18T04:30:52;-8.10;99.90
14119;DHT22;7138;49.246;9.100;2022-12-18T04:33:20;-8.10;99.90
14119;DHT22;7138;49.246;9.100;2022-12-18T04:35:46;-8.20;99.90
14119;DHT22;7138;49.246;9.100;2022-12-18T04:38:11;-8.20;99.90
14119;DHT22;7138;49.246;9.100;2022-12-18T04:40:38;-8.30;99.90
14119;DHT22;7138;49.246;9.100;2022-12-18T04:43:04;-8.30;99.90
14119;DHT22;7138;49.246;9.100;2022-12-18T04:45:30;-8.30;99.90
14119;DHT22;7138;49.246;9.100;2022-12-18T04:47:57;-8.40;99.90
14119;DHT22;7138;49.246;9.100;2022-12-18T04:50:24;-8.40;99.90
14119;DHT22;7138;49.246;9.100;2022-12-18T04:52:50;-8.40;99.90
14119;DHT22;7138;49.246;9.100;2022-12-18T04:55:16;-8.50;99.90
14119;DHT22;7138;49.246;9.100;2022-12-18T04:57:42;-8.50;99.90
14119;DHT22;7138;49.246;9.100;2022-12-18T05:00:09;-8.50;99.90
14119;DHT22;7138;49.246;9.100;2022-12-18T05:02:35;-8.60;99.90
14119;DHT22;7138;49.246;9.100;2022-12-18T05:05:02;-8.60;99.90
14119;DHT22;7138;49.246;9.100;2022-12-18T05:07:29;-8.60;99.90
14119;DHT22;7138;49.246;9.100;2022-12-18T05:09:56;-8.70;99.90
14119;DHT22;7138;49.246;9.100;2022-12-18T05:12:21;-8.70;99.90
14119;DHT22;7138;49.246;9.100;2022-12-18T05:14:47;-8.70;99.90
14119;DHT22;7138;49.246;9.100;2022-12-18T05:17:13;-8.80;99.90
14119;DHT22;7138;49.246;9.100;2022-12-18T05:19:39;-8.80;99.90
14119;DHT22;7138;49.246;9.100;2022-12-18T05:22:05;-8.90;99.90
14119;DHT22;7138;49.246;9.100;2022-12-18T05:24:32;-8.90;99.90
14119;DHT22;7138;49.246;9.100;2022-12-18T05:26:58;-8.90;99.90
14119;DHT22;7138;49.246;9.100;2022-12-18T05:29:24;-8.90;99.90
14119;DHT22;7138;49.246;9.100;2022-12-18T05:31:50;-8.90;99.90
14119;DHT22;7138;49.246;9.100;2022-12-18T05:34:16;-9.00;99.90
14119;DHT22;7138;49.246;9.100;2022-12-18T05:36:42;-9.10;99.90
14119;DHT22;7138;49.246;9.100;2022-12-18T05:39:09;-9.10;99.90
14119;DHT22;7138;49.246;9.100;2022-12-18T05:41:36;-9.10;99.90
14119;DHT22;7138;49.246;9.100;2022-12-18T05:44:02;-9.10;99.90
14119;DHT22;7138;49.246;9.100;2022-12-18T05:46:28;-9.10;99.90
14119;DHT22;7138;49.246;9.100;2022-12-18T05:48:55;-9.10;99.90
14119;DHT22;7138;49.246;9.100;2022-12-18T05:51:24;-9.10;99.90
14119;DHT22;7138;49.246;9.100;2022-12-18T05:53:50;-9.10;99.90
14119;DHT22;7138;49.246;9.100;2022-12-18T05:56:18;-9.10;99.90
14119;DHT22;7138;49.246;9.100;2022-12-18T05:58:50;-9.20;99.90
14119;DHT22;7138;49.246;9.100;2022-12-18T06:01:19;-9.20;99.90
14119;DHT22;7138;49.246;9.100;2022-12-18T06:03:47;-9.20;99.90
14119;DHT22;7138;49.246;9.100;2022-12-18T06:06:15;-9.20;99.90
14119;DHT22;7138;49.246;9.100;2022-12-18T06:08:42;-9.20;99.90
14119;DHT22;7138;49.246;9.100;2022-12-18T06:11:08;-9.20;99.90
14119;DHT22;7138;49.246;9.100;2022-12-18T06:13:33;-9.20;99.90
14119;DHT22;7138;49.246;9.100;2022-12-18T06:16:03;-9.20;99.90
14119;DHT22;7138;49.246;9.100;2022-12-18T06:18:30;-9.20;99.90
14119;DHT22;7138;49.246;9.100;2022-12-18T06:20:56;-9.30;99.90
14119;DHT22;7138;49.246;9.100;2022-12-18T06:23:22;-9.30;99.90
14119;DHT22;7138;49.246;9.100;2022-12-18T06:25:48;-9.30;99.90
14119;DHT22;7138;49.246;9.100;2022-12-18T06:28:14;-9.30;99.90
14119;DHT22;7138;49.246;9.100;2022-12-18T06:30:40;-9.30;99.90
14119;DHT22;7138;49.246;9.100;2022-12-18T06:33:10;-9.30;99.90
14119;DHT22;7138;49.246;9.100;2022-12-18T06:35:36;-9.30;99.90
14119;DHT22;7138;49.246;9.100;2022-12-18T06:38:02;-9.30;99.90
14119;DHT22;7138;49.246;9.100;2022-12-18T06:40:28;-9.30;99.90
14119;DHT22;7138;49.246;9.100;2022-12-18T06:42:54;-9.30;99.90
14119;DHT22;7138;49.246;9.100;2022-12-18T06:45:20;-9.30;99.90
14119;DHT22;7138;49.246;9.100;2022-12-18T06:47:46;-9.40;99.90
14119;DHT22;7138;49.246;9.100;2022-12-18T06:50:13;-9.30;99.90
14119;DHT22;7138;49.246;9.100;2022-12-18T06:52:39;-9.40;99.90
14119;DHT22;7138;49.246;9.100;2022-12-18T06:55:06;-9.40;99.90
14119;DHT22;7138;49.246;9.100;2022-12-18T06:57:33;-9.40;99.90
14119;DHT22;7138;49.246;9.100;2022-12-18T06:59:59;-9.30;99.90
14119;DHT22;7138;49.246;9.100;2022-12-18T07:02:25;-9.30;99.90
14119;DHT22;7138;49.246;9.100;2022-12-18T07:04:51;-9.40;99.90
14119;DHT22;7138;49.246;9.100;2022-12-18T07:07:18;-9.30;99.90
14119;DHT22;7138;49.246;9.100;2022-12-18T07:09:44;-9.30;99.90
14119;DHT22;7138;49.246;9.100;2022-12-18T07:12:10;-9.30;99.90
14119;DHT22;7138;49.246;9.100;2022-12-18T07:14:36;-9.30;99.90
14119;DHT22;7138;49.246;9.100;2022-12-18T07:17:02;-9.30;99.90
14119;DHT22;7138;49.246;9.100;2022-12-18T07:19:28;-9.20;99.90
14119;DHT22;7138;49.246;9.100;2022-12-18T07:21:54;-9.20;99.90
14119;DHT22;7138;49.246;9.100;2022-12-18T07:24:21;-9.20;99.90
14119;DHT22;7138;49.246;9.100;2022-12-18T07:26:47;-9.20;99.90
14119;DHT22;7138;49.246;9.100;2022-12-18T07:29:13;-9.20;99.90
14119;DHT22;7138;49.246;9.100;2022-12-18T07:31:39;-9.20;99.90
14119;DHT22;7138;49.246;9.100;2022-12-18T07:34:05;-9.20;99.90
14119;DHT22;7138;49.246;9.100;2022-12-18T07:36:35;-9.20;99.90
14119;DHT22;7138;49.246;9.100;2022-12-18T07:39:01;-9.20;99.90
14119;DHT22;7138;49.246;9.100;2022-12-18T07:41:28;-9.20;99.90
14119;DHT22;7138;49.246;9.100;2022-12-18T07:43:54;-9.10;99.90
14119;DHT22;7138;49.246;9.100;2022-12-18T07:46:20;-9.10;99.90
14119;DHT22;7138;49.246;9.100;2022-12-18T07:48:47;-9.10;99.90
14119;DHT22;7138;49.246;9.100;2022-12-18T07:51:13;-9.00;99.90
14119;DHT22;7138;49.246;9.100;2022-12-18T07:53:39;-8.90;99.90
14119;DHT22;7138;49.246;9.100;2022-12-18T07:56:07;-8.90;99.90
14119;DHT22;7138;49.246;9.100;2022-12-18T07:58:36;-8.90;99.90
14119;DHT22;7138;49.246;9.100;2022-12-18T08:01:03;-8.80;99.90
14119;DHT22;7138;49.246;9.100;2022-12-18T08:03:30;-8.70;99.90
14119;DHT22;7138;49.246;9.100;2022-12-18T08:05:58;-8.70;99.90
14119;DHT22;7138;49.246;9.100;2022-12-18T08:08:25;-8.60;99.90
14119;DHT22;7138;49.246;9.100;2022-12-18T08:10:51;-8.60;99.90
14119;DHT22;7138;49.246;9.100;2022-12-18T08:13:17;-8.60;99.90
14119;DHT22;7138;49.246;9.100;2022-12-18T08:15:44;-8.50;99.90
14119;DHT22;7138;49.246;9.100;2022-12-18T08:18:10;-8.40;99.90
14119;DHT22;7138;49.246;9.100;2022-12-18T08:20:36;-8.50;99.90
14119;DHT22;7138;49.246;9.100;2022-12-18T08:23:01;-8.40;99.90
14119;DHT22;7138;49.246;9.100;2022-12-18T08:25:27;-8.30;99.90
14119;DHT22;7138;49.246;9.100;2022-12-18T08:27:53;-8.20;99.90
14119;DHT22;7138;49.246;9.100;2022-12-18T08:30:20;-8.10;99.90
14119;DHT22;7138;49.246;9.100;2022-12-18T08:32:51;-8.00;99.90
14119;DHT22;7138;49.246;9.100;2022-12-18T08:35:18;-8.00;99.90
14119;DHT22;7138;49.246;9.100;2022-12-18T08:37:44;-7.90;99.90
14119;DHT22;7138;49.246;9.100;2022-12-18T08:40:10;-7.80;99.90
14119;DHT22;7138;49.246;9.100;2022-12-18T08:42:38;-7.70;99.90
14119;DHT22;7138;49.246;9.100;2022-12-18T08:45:22;-7.60;99.90
14119;DHT22;7138;49.246;9.100;2022-12-18T08:47:50;-7.60;99.90
14119;DHT22;7138;49.246;9.100;2022-12-18T08:50:16;-7.60;99.90
14119;DHT22;7138;49.246;9.100;2022-12-18T08:52:42;-7.50;99.90
14119;DHT22;7138;49.246;9.100;2022-12-18T08:55:08;-7.30;99.90
14119;DHT22;7138;49.246;9.100;2022-12-18T08:57:35;-7.30;99.90
14119;DHT22;7138;49.246;9.100;2022-12-18T09:00:01;-7.10;99.90
14119;DHT22;7138;49.246;9.100;2022-12-18T09:02:27;-7.10;99.90
14119;DHT22;7138;49.246;9.100;2022-12-18T09:04:54;-7.10;99.90
14119;DHT22;7138;49.246;9.100;2022-12-18T09:07:20;-7.00;99.90
14119;DHT22;7138;49.246;9.100;2022-12-18T09:09:46;-6.80;99.90
14119;DHT22;7138;49.246;9.100;2022-12-18T09:12:12;-6.90;99.90
14119;DHT22;7138;49.246;9.100;2022-12-18T09:14:38;-6.70;99.90
14119;DHT22;7138;49.246;9.100;2022-12-18T09:17:04;-6.60;99.90
14119;DHT22;7138;49.246;9.100;2022-12-18T09:19:30;-6.60;99.90
14119;DHT22;7138;49.246;9.100;2022-12-18T09:21:57;-6.40;99.90
14119;DHT22;7138;49.246;9.100;2022-12-18T09:24:23;-6.40;99.90
14119;DHT22;7138;49.246;9.100;2022-12-18T09:26:52;-6.40;99.90
14119;DHT22;7138;49.246;9.100;2022-12-18T09:29:20;-6.10;99.90
14119;DHT22;7138;49.246;9.100;2022-12-18T09:31:47;-6.20;99.90
14119;DHT22;7138;49.246;9.100;2022-12-18T09:34:13;-6.20;99.90
14119;DHT22;7138;49.246;9.100;2022-12-18T09:36:39;-6.00;99.90
14119;DHT22;7138;49.246;9.100;2022-12-18T09:39:06;-5.90;99.90
14119;DHT22;7138;49.246;9.100;2022-12-18T09:41:44;-5.90;99.90
14119;DHT22;7138;49.246;9.100;2022-12-18T09:44:18;-6.00;99.90
14119;DHT22;7138;49.246;9.100;2022-12-18T09:46:51;-5.80;99.90
14119;DHT22;7138;49.246;9.100;2022-12-18T09:49:30;-5.70;99.90
14119;DHT22;7138;49.246;9.100;2022-12-18T09:52:03;-5.50;99.90
14119;DHT22;7138;49.246;9.100;2022-12-18T09:54:38;-5.50;99.90
14119;DHT22;7138;49.246;9.100;2022-12-18T09:57:05;-5.50;99.90
14119;DHT22;7138;49.246;9.100;2022-12-18T09:59:35;-5.40;99.90
14119;DHT22;7138;49.246;9.100;2022-12-18T10:02:14;-5.10;99.90
14119;DHT22;7138;49.246;9.100;2022-12-18T10:04:41;-5.10;99.90
14119;DHT22;7138;49.246;9.100;2022-12-18T10:07:12;-5.00;99.90
14119;DHT22;7138;49.246;9.100;2022-12-18T10:09:52;-4.90;99.90
14119;DHT22;7138;49.246;9.100;2022-12-18T10:12:29;-4.90;99.90
14119;DHT22;7138;49.246;9.100;2022-12-18T10:15:05;-4.90;99.90
14119;DHT22;7138;49.246;9.100;2022-12-18T10:17:41;-4.80;99.90
14119;DHT22;7138;49.246;9.100;2022-12-18T10:20:17;-4.70;99.90
14119;DHT22;7138;49.246;9.100;2022-12-18T10:22:55;-4.60;99.90
14119;DHT22;7138;49.246;9.100;2022-12-18T10:25:30;-4.60;99.90
14119;DHT22;7138;49.246;9.100;2022-12-18T10:28:09;-4.40;99.90
14119;DHT22;7138;49.246;9.100;2022-12-18T10:30:39;-4.20;99.90
14119;DHT22;7138;49.246;9.100;2022-12-18T10:33:10;-4.30;99.90
14119;DHT22;7138;49.246;9.100;2022-12-18T10:35:41;-4.20;99.90
14119;DHT22;7138;49.246;9.100;2022-12-18T10:38:21;-4.00;99.90
14119;DHT22;7138;49.246;9.100;2022-12-18T10:40:53;-4.00;99.90
14119;DHT22;7138;49.246;9.100;2022-12-18T10:43:23;-3.90;99.90
14119;DHT22;7138;49.246;9.100;2022-12-18T10:46:00;-3.80;99.90
14119;DHT22;7138;49.246;9.100;2022-12-18T10:48:52;-3.70;99.90
14119;DHT22;7138;49.246;9.100;2022-12-18T10:51:23;-3.70;99.90
14119;DHT22;7138;49.246;9.100;2022-12-18T10:53:54;-3.80;99.90
14119;DHT22;7138;49.246;9.100;2022-12-18T10:56:24;-3.80;99.90
14119;DHT22;7138;49.246;9.100;2022-12-18T10:58:58;-3.90;99.90
14119;DHT22;7138;49.246;9.100;2022-12-18T11:01:25;-3.70;99.90
14119;DHT22;7138;49.246;9.100;2022-12-18T11:04:00;-3.60;99.90
14119;DHT22;7138;49.246;9.100;2022-12-18T11:06:32;-3.60;99.90
14119;DHT22;7138;49.246;9.100;2022-12-18T11:09:01;-3.40;99.90
14119;DHT22;7138;49.246;9.100;2022-12-18T11:11:31;-3.20;99.90
14119;DHT22;7138;49.246;9.100;2022-12-18T11:14:01;-3.40;99.90
14119;DHT22;7138;49.246;9.100;2022-12-18T11:16:30;-3.40;99.90
14119;DHT22;7138;49.246;9.100;2022-12-18T11:19:17;-3.00;99.90
14119;DHT22;7138;49.246;9.100;2022-12-18T11:21:47;-2.90;99.90
14119;DHT22;7138;49.246;9.100;2022-12-18T11:24:20;-2.90;99.90
14119;DHT22;7138;49.246;9.100;2022-12-18T11:26:53;-2.90;99.90
14119;DHT22;7138;49.246;9.100;2022-12-18T11:29:27;-3.00;99.90
14119;DHT22;7138;49.246;9.100;2022-12-18T11:32:27;-2.80;99.90
14119;DHT22;7138;49.246;9.100;2022-12-18T11:35:01;-2.80;99.90
14119;DHT22;7138;49.246;9.100;2022-12-18T11:37:35;-2.70;99.90
14119;DHT22;7138;49.246;9.100;2022-12-18T11:40:09;-2.50;99.90
14119;DHT22;7138;49.246;9.100;2022-12-18T11:42:45;-2.70;99.90
14119;DHT22;7138;49.246;9.100;2022-12-18T11:45:28;-2.80;99.90
14119;DHT22;7138;49.246;9.100;2022-12-18T11:48:02;-2.70;99.90
14119;DHT22;7138;49.246;9.100;2022-12-18T11:50:43;-2.90;99.90
14119;DHT22;7138;49.246;9.100;2022-12-18T11:53:12;-2.80;99.90
14119;DHT22;7138;49.246;9.100;2022-12-18T11:55:43;-2.60;99.90
14119;DHT22;7138;49.246;9.100;2022-12-18T11:58:33;-2.50;99.90
14119;DHT22;7138;49.246;9.100;2022-12-18T12:01:16;-2.40;99.90
14119;DHT22;7138;49.246;9.100;2022-12-18T12:04:20;-2.30;99.90
14119;DHT22;7138;49.246;9.100;2022-12-18T12:07:09;-2.20;99.90
14119;DHT22;7138;49.246;9.100;2022-12-18T12:09:53;-2.20;99.90
14119;DHT22;7138;49.246;9.100;2022-12-18T12:12:34;-2.30;99.90
14119;DHT22;7138;49.246;9.100;2022-12-18T12:15:20;-2.10;99.90
14119;DHT22;7138;49.246;9.100;2022-12-18T12:17:57;-2.20;99.90
14119;DHT22;7138;49.246;9.100;2022-12-18T12:20:40;-2.20;99.90
14119;DHT22;7138;49.246;9.100;2022-12-18T12:23:18;-2.20;99.90
14119;DHT22;7138;49.246;9.100;2022-12-18T12:25:57;-2.20;99.90
14119;DHT22;7138;49.246;9.100;2022-12-18T12:28:36;-2.30;99.90
14119;DHT22;7138;49.246;9.100;2022-12-18T12:31:32;-2.30;99.90
14119;DHT22;7138;49.246;9.100;2022-12-18T12:34:16;-2.40;99.90
14119;DHT22;7138;49.246;9.100;2022-12-18T12:36:57;-2.20;99.90
14119;DHT22;7138;49.246;9.100;2022-12-18T12:39:35;-2.10;99.90
14119;DHT22;7138;49.246;9.100;2022-12-18T12:42:04;-2.20;99.90
14119;DHT22;7138;49.246;9.100;2022-12-18T12:45:03;-2.20;99.90
14119;DHT22;7138;49.246;9.100;2022-12-18T12:47:37;-2.00;99.90
14119;DHT22;7138;49.246;9.100;2022-12-18T12:50:14;-2.10;99.90
14119;DHT22;7138;49.246;9.100;2022-12-18T12:52:45;-2.00;99.90
14119;DHT22;7138;49.246;9.100;2022-12-18T12:55:18;-1.90;99.90
14119;DHT22;7138;49.246;9.100;2022-12-18T12:57:48;-1.90;99.90
14119;DHT22;7138;49.246;9.100;2022-12-18T13:00:23;-2.00;99.90
14119;DHT22;7138;49.246;9.100;2022-12-18T13:03:03;-2.00;99.90
14119;DHT22;7138;49.246;9.100;2022-12-18T13:05:43;-1.90;99.90
14119;DHT22;7138;49.246;9.100;2022-12-18T13:08:22;-2.00;99.90
14119;DHT22;7138;49.246;9.100;2022-12-18T13:10:53;-2.10;99.90
14119;DHT22;7138;49.246;9.100;2022-12-18T13:13:50;-2.00;99.90
14119;DHT22;7138;49.246;9.100;2022-12-18T13:16:19;-2.00;99.90
14119;DHT22;7138;49.246;9.100;2022-12-18T13:18:52;-1.90;99.90
14119;DHT22;7138;49.246;9.100;2022-12-18T13:21:23;-1.90;99.90
14119;DHT22;7138;49.246;9.100;2022-12-18T13:23:53;-2.00;99.90
14119;DHT22;7138;49.246;9.100;2022-12-18T13:26:34;-2.00;99.90
14119;DHT22;7138;49.246;9.100;2022-12-18T13:29:02;-2.00;99.90
14119;DHT22;7138;49.246;9.100;2022-12-18T13:31:58;-2.00;99.90
14119;DHT22;7138;49.246;9.100;2022-12-18T13:34:28;-2.10;99.90
14119;DHT22;7138;49.246;9.100;2022-12-18T13:36:57;-2.10;99.90
14119;DHT22;7138;49.246;9.100;2022-12-18T13:40:02;-2.10;99.90
14119;DHT22;7138;49.246;9.100;2022-12-18T13:42:50;-2.20;99.90
14119;DHT22;7138;49.246;9.100;2022-12-18T13:45:44;-2.30;99.90
14119;DHT22;7138;49.246;9.100;2022-12-18T13:48:16;-2.30;99.90
14119;DHT22;7138;49.246;9.100;2022-12-18T13:51:03;-2.40;99.90
14119;DHT22;7138;49.246;9.100;2022-12-18T13:53:35;-2.40;99.90
14119;DHT22;7138;49.246;9.100;2022-12-18T13:56:05;-2.40;99.90
14119;DHT22;7138;49.246;9.100;2022-12-18T13:58:33;-2.40;99.90
14119;DHT22;7138;49.246;9.100;2022-12-18T14:00:59;-2.40;99.90
14119;DHT22;7138;49.246;9.100;2022-12-18T14:03:28;-2.40;99.90
14119;DHT22;7138;49.246;9.100;2022-12-18T14:05:59;-2.40;99.90
14119;DHT22;7138;49.246;9.100;2022-12-18T14:08:33;-2.40;99.90
14119;DHT22;7138;49.246;9.100;2022-12-18T14:11:04;-2.50;99.90
14119;DHT22;7138;49.246;9.100;2022-12-18T14:13:36;-2.50;99.90
14119;DHT22;7138;49.246;9.100;2022-12-18T14:16:05;-2.60;99.90
14119;DHT22;7138;49.246;9.100;2022-12-18T14:18:36;-2.60;99.90
14119;DHT22;7138;49.246;9.100;2022-12-18T14:21:18;-2.60;99.90
14119;DHT22;7138;49.246;9.100;2022-12-18T14:23:47;-2.70;99.90
14119;DHT22;7138;49.246;9.100;2022-12-18T14:26:21;-2.60;99.90
14119;DHT22;7138;49.246;9.100;2022-12-18T14:28:52;-2.70;99.90
14119;DHT22;7138;49.246;9.100;2022-12-18T14:31:19;-2.70;99.90
14119;DHT22;7138;49.246;9.100;2022-12-18T14:33:46;-2.80;99.90
14119;DHT22;7138;49.246;9.100;2022-12-18T14:36:16;-2.70;99.90
14119;DHT22;7138;49.246;9.100;2022-12-18T14:38:48;-2.80;99.90
14119;DHT22;7138;49.246;9.100;2022-12-18T14:41:17;-2.80;99.90
14119;DHT22;7138;49.246;9.100;2022-12-18T14:43:45;-2.90;99.90
14119;DHT22;7138;49.246;9.100;2022-12-18T14:46:29;-2.90;99.90
14119;DHT22;7138;49.246;9.100;2022-12-18T14:49:01;-2.90;99.90
14119;DHT22;7138;49.246;9.100;2022-12-18T14:51:30;-2.90;99.90
14119;DHT22;7138;49.246;9.100;2022-12-18T14:53:58;-3.00;99.90
14119;DHT22;7138;49.246;9.100;2022-12-18T14:56:27;-3.00;99.90
14119;DHT22;7138;49.246;9.100;2022-12-18T14:58:57;-3.00;99.90
14119;DHT22;7138;49.246;9.100;2022-12-18T15:01:28;-3.10;99.90
14119;DHT22;7138;49.246;9.100;2022-12-18T15:03:58;-3.10;99.90
14119;DHT22;7138;49.246;9.100;2022-12-18T15:06:28;-3.10;99.90
14119;DHT22;7138;49.246;9.100;2022-12-18T15:09:00;-3.20;99.90
14119;DHT22;7138;49.246;9.100;2022-12-18T15:11:33;-3.20;99.90
14119;DHT22;7138;49.246;9.100;2022-12-18T15:14:22;-3.30;99.90
14119;DHT22;7138;49.246;9.100;2022-12-18T15:16:52;-3.30;99.90
14119;DHT22;7138;49.246;9.100;2022-12-18T15:19:20;-3.30;99.90
14119;DHT22;7138;49.246;9.100;2022-12-18T15:21:48;-3.30;99.90
14119;DHT22;7138;49.246;9.100;2022-12-18T15:24:18;-3.40;99.90
14119;DHT22;7138;49.246;9.100;2022-12-18T15:26:48;-3.40;99.90
14119;DHT22;7138;49.246;9.100;2022-12-18T15:29:20;-3.40;99.90
14119;DHT22;7138;49.246;9.100;2022-12-18T15:32:00;-3.50;99.90
14119;DHT22;7138;49.246;9.100;2022-12-18T15:34:28;-3.50;99.90
14119;DHT22;7138;49.246;9.100;2022-12-18T15:36:57;-3.50;99.90
14119;DHT22;7138;49.246;9.100;2022-12-18T15:39:23;-3.50;99.90
14119;DHT22;7138;49.246;9.100;2022-12-18T15:41:49;-3.60;99.90
14119;DHT22;7138;49.246;9.100;2022-12-18T15:44:34;-3.60;99.90
14119;DHT22;7138;49.246;9.100;2022-12-18T15:47:02;-3.60;99.90
14119;DHT22;7138;49.246;9.100;2022-12-18T15:49:28;-3.60;99.90
14119;DHT22;7138;49.246;9.100;2022-12-18T15:51:57;-3.70;99.90
14119;DHT22;7138;49.246;9.100;2022-12-18T15:54:25;-3.70;99.90
14119;DHT22;7138;49.246;9.100;2022-12-18T15:57:10;-3.80;99.90
14119;DHT22;7138;49.246;9.100;2022-12-18T15:59:49;-3.80;99.90
14119;DHT22;7138;49.246;9.100;2022-12-18T16:02:18;-3.80;99.90
14119;DHT22;7138;49.246;9.100;2022-12-18T16:04:45;-3.80;99.90
14119;DHT22;7138;49.246;9.100;2022-12-18T16:07:11;-3.80;99.90
14119;DHT22;7138;49.246;9.100;2022-12-18T16:09:37;-3.80;99.90